createdAt,value
2019-03-29T15:41:58.668Z,22.23
2019-03-29T15:42:58.305Z,22.32
2019-03-29T15:43:58.309Z,22.41
2019-03-29T15:44:58.258Z,22.30
2019-03-29T15:45:58.233Z,22.13
2019-03-29T15:46:58.221Z,22.10
2019-03-29T15:47:58.246Z,21.98
2019-03-29T15:48:58.195Z,21.99
2019-03-29T15:49:58.186Z,21.99
2019-03-29T15:50:58.205Z,22.07
2019-03-29T15:51:58.168Z,21.99
2019-03-29T15:52:58.168Z,21.91
2019-03-29T15:53:58.206Z,21.70
2019-03-29T15:54:58.150Z,21.67
2019-03-29T15:55:58.125Z,21.66
2019-03-29T15:56:58.120Z,21.67
2019-03-29T15:57:58.117Z,21.50
2019-03-29T15:58:58.138Z,21.54
2019-03-29T15:59:58.109Z,21.48
2019-03-29T16:00:58.078Z,21.55
2019-03-29T16:01:58.073Z,21.50
2019-03-29T16:02:58.056Z,21.55
2019-03-29T16:03:58.075Z,21.57
2019-03-29T16:04:58.035Z,21.60
2019-03-29T16:05:58.027Z,21.69
2019-03-29T16:06:58.042Z,21.69
2019-03-29T16:07:58.010Z,21.73
2019-03-29T16:08:58.034Z,21.82
2019-03-29T16:09:57.987Z,21.85
2019-03-29T16:10:57.992Z,21.85
2019-03-29T16:11:57.971Z,21.82
2019-03-29T16:12:57.967Z,21.66
2019-03-29T16:13:57.977Z,21.52
2019-03-29T16:14:57.934Z,21.33
2019-03-29T16:15:57.921Z,21.17
2019-03-29T16:16:57.908Z,21.12
2019-03-29T16:17:57.954Z,21.03
2019-03-29T16:18:57.933Z,21.12
2019-03-29T16:19:57.906Z,20.99
2019-03-29T16:20:57.864Z,20.96
2019-03-29T16:21:57.923Z,21.00
2019-03-29T16:22:57.857Z,21.07
2019-03-29T16:23:57.862Z,21.22
2019-03-29T16:24:57.845Z,21.22
2019-03-29T16:25:57.819Z,21.25
2019-03-29T16:26:57.807Z,21.17
2019-03-29T16:27:57.817Z,21.22
2019-03-29T16:28:57.816Z,21.07
2019-03-29T16:29:58.496Z,20.84
2019-03-29T16:30:57.759Z,20.95
2019-03-29T16:31:57.750Z,21.00
2019-03-29T16:32:57.757Z,21.06
2019-03-29T16:33:57.763Z,21.06
2019-03-29T16:34:57.717Z,21.06
2019-03-29T16:35:57.710Z,20.95
2019-03-29T16:36:57.741Z,20.92
2019-03-29T16:37:57.874Z,20.84
2019-03-29T16:38:57.889Z,20.62
2019-03-29T16:39:57.693Z,20.55
2019-03-29T16:40:57.657Z,20.41
2019-03-29T16:41:57.648Z,20.50
2019-03-29T16:42:57.640Z,20.55
2019-03-29T16:43:57.648Z,20.41
2019-03-29T16:44:57.609Z,20.40
2019-03-29T16:45:57.619Z,20.34
2019-03-29T16:46:57.591Z,20.13
2019-03-29T16:47:57.578Z,20.10
2019-03-29T16:48:57.606Z,20.10
2019-03-29T16:49:57.556Z,20.10
2019-03-29T16:50:57.552Z,20.16
2019-03-29T16:51:57.561Z,20.06
2019-03-29T16:52:57.525Z,20.06
2019-03-29T16:53:57.552Z,20.19
2019-03-29T16:54:57.513Z,20.16
2019-03-29T16:55:57.492Z,20.26
2019-03-29T16:56:57.540Z,20.36
2019-03-29T16:57:57.541Z,20.40
2019-03-29T16:58:57.488Z,20.41
2019-03-29T16:59:57.472Z,20.39
2019-03-29T17:00:57.440Z,20.37
2019-03-29T17:01:57.427Z,20.29
2019-03-29T17:02:58.022Z,20.16
2019-03-29T17:03:57.437Z,20.16
2019-03-29T17:04:57.408Z,20.04
2019-03-29T17:05:57.414Z,19.84
2019-03-29T17:06:57.416Z,19.79
2019-03-29T17:07:58.101Z,19.79
2019-03-29T17:08:57.404Z,19.67
2019-03-29T17:09:57.370Z,19.58
2019-03-29T17:10:57.377Z,19.30
2019-03-29T17:11:57.338Z,19.18
2019-03-29T17:12:57.328Z,19.09
2019-03-29T17:13:57.372Z,18.92
2019-03-29T17:14:57.300Z,18.66
2019-03-29T17:16:02.007Z,18.59
2019-03-29T17:16:58.273Z,18.31
2019-03-29T17:17:57.271Z,18.31
2019-03-29T17:18:57.298Z,18.07
2019-03-29T17:19:57.248Z,18.01
2019-03-29T17:20:57.361Z,17.80
2019-03-29T17:21:57.634Z,17.65
2019-03-29T17:22:57.298Z,17.54
2019-03-29T17:23:57.497Z,17.56
2019-03-29T17:24:57.538Z,17.41
2019-03-29T17:25:57.313Z,17.24
2019-03-29T17:26:57.283Z,17.04
2019-03-29T17:27:57.251Z,16.97
2019-03-29T17:28:57.197Z,16.83
2019-03-29T17:29:57.167Z,16.68
2019-03-29T17:30:57.137Z,16.47
2019-03-29T17:31:57.187Z,16.32
2019-03-29T17:32:57.119Z,16.15
2019-03-29T17:33:57.253Z,16.02
2019-03-29T17:34:57.177Z,15.91
2019-03-29T17:35:57.303Z,15.86
2019-03-29T17:36:57.138Z,15.73
2019-03-29T17:39:07.870Z,15.62
2019-03-29T17:40:07.737Z,15.44
2019-03-29T17:41:07.677Z,15.42
2019-03-29T17:42:07.741Z,15.31
2019-03-29T17:43:07.651Z,15.21
2019-03-29T17:44:07.707Z,15.09
2019-03-29T17:45:07.632Z,15.06
2019-03-29T17:46:16.749Z,14.92
2019-03-29T17:47:07.607Z,14.82
2019-03-29T17:48:07.774Z,14.66
2019-03-29T17:49:07.618Z,14.62
2019-03-29T17:50:07.789Z,14.58
2019-03-29T17:51:07.565Z,14.44
2019-03-29T17:52:07.628Z,14.37
2019-03-29T17:53:07.551Z,14.33
2019-03-29T17:54:07.664Z,14.20
2019-03-29T17:55:07.533Z,14.14
2019-03-29T17:56:07.634Z,14.10
2019-03-29T17:57:07.623Z,13.97
2019-03-29T17:58:07.494Z,13.86
2019-03-29T17:59:07.636Z,13.60
2019-03-29T18:00:07.498Z,13.54
2019-03-29T18:01:14.117Z,13.49
2019-03-29T18:02:09.751Z,13.31
2019-03-29T18:03:07.469Z,13.23
2019-03-29T18:04:07.451Z,13.20
2019-03-29T18:05:08.604Z,13.22
2019-03-29T18:06:07.404Z,13.18
2019-03-29T18:07:08.422Z,13.08
2019-03-29T18:08:07.407Z,13.05
2019-03-29T18:09:07.395Z,13.05
2019-03-29T18:10:08.363Z,12.98
2019-03-29T18:11:07.355Z,12.90
2019-03-29T18:12:07.502Z,12.90
2019-03-29T18:13:07.332Z,12.87
2019-03-29T18:14:07.342Z,12.80
2019-03-29T18:15:07.350Z,12.80
2019-03-29T18:16:07.298Z,12.80
2019-03-29T18:17:07.456Z,12.75
2019-03-29T18:18:07.291Z,12.70
2019-03-29T18:19:07.296Z,12.45
2019-03-29T18:20:07.251Z,12.43
2019-03-29T18:21:08.108Z,12.35
2019-03-29T18:22:07.255Z,12.35
2019-03-29T18:23:07.306Z,12.25
2019-03-29T18:24:07.253Z,12.18
2019-03-29T18:25:07.239Z,12.02
2019-03-29T18:26:07.257Z,11.91
2019-03-29T18:27:07.315Z,11.83
2019-03-29T18:28:07.177Z,11.77
2019-03-29T18:29:07.326Z,11.69
2019-03-29T18:30:07.180Z,11.55
2019-03-29T18:31:07.134Z,11.57
2019-03-29T18:32:07.242Z,11.51
2019-03-29T18:33:07.115Z,11.40
2019-03-29T18:34:07.271Z,11.44
2019-03-29T18:35:07.258Z,11.32
2019-03-29T18:36:07.090Z,11.25
2019-03-29T18:37:07.118Z,11.19
2019-03-29T18:38:07.182Z,11.04
2019-03-29T18:39:07.131Z,10.94
2019-03-29T18:40:07.166Z,10.99
2019-03-29T18:41:07.033Z,10.93
2019-03-29T18:42:07.028Z,11.02
2019-03-29T18:43:07.138Z,10.93
2019-03-29T18:44:07.027Z,10.86
2019-03-29T18:45:08.070Z,10.82
2019-03-29T18:46:07.039Z,10.84
2019-03-29T18:47:08.129Z,10.82
2019-03-29T18:48:06.957Z,10.81
2019-03-29T18:49:07.532Z,10.68
2019-03-29T18:50:06.940Z,10.71
2019-03-29T18:51:07.065Z,10.69
2019-03-29T18:52:06.911Z,10.60
2019-03-29T18:53:06.906Z,10.53
2019-03-29T18:54:07.038Z,10.53
2019-03-29T18:55:06.889Z,10.42
2019-03-29T18:56:06.997Z,10.35
2019-03-29T18:57:06.867Z,10.35
2019-03-29T18:58:06.926Z,10.40
2019-03-29T18:59:06.869Z,10.28
2019-03-29T19:00:07.021Z,10.31
2019-03-29T19:01:06.824Z,10.26
2019-03-29T19:02:06.937Z,10.20
2019-03-29T19:03:06.794Z,10.13
2019-03-29T19:04:06.810Z,10.13
2019-03-29T19:05:06.767Z,10.25
2019-03-29T19:06:06.863Z,10.10
2019-03-29T19:07:06.762Z,10.04
2019-03-29T19:08:07.902Z,9.92
2019-03-29T19:09:06.762Z,9.99
2019-03-29T19:10:06.719Z,9.91
2019-03-29T19:11:06.706Z,9.87
2019-03-29T19:12:06.804Z,9.91
2019-03-29T19:13:06.689Z,9.83
2019-03-29T19:14:06.847Z,9.80
2019-03-29T19:15:06.670Z,9.74
2019-03-29T19:16:06.664Z,9.74
2019-03-29T19:17:06.830Z,9.74
2019-03-29T19:18:06.639Z,9.77
2019-03-29T19:19:10.222Z,9.68
2019-03-29T19:20:10.210Z,9.69
2019-03-29T19:21:06.759Z,9.59
2019-03-29T19:22:06.594Z,9.65
2019-03-29T19:23:06.793Z,9.59
2019-03-29T19:24:06.602Z,9.50
2019-03-29T19:25:06.679Z,9.48
2019-03-29T19:26:06.552Z,9.41
2019-03-29T19:27:06.600Z,9.43
2019-03-29T19:28:06.529Z,9.40
2019-03-29T19:29:06.754Z,9.34
2019-03-29T19:30:06.599Z,9.29
2019-03-29T19:31:06.625Z,9.23
2019-03-29T19:32:06.474Z,9.21
2019-03-29T19:33:06.569Z,9.08
2019-03-29T19:34:06.628Z,9.13
2019-03-29T19:35:06.470Z,9.13
2019-03-29T19:36:07.573Z,9.10
2019-03-29T19:37:06.519Z,9.00
2019-03-29T19:38:07.592Z,9.04
2019-03-29T19:39:06.412Z,8.94
2019-03-29T19:40:07.576Z,9.02
2019-03-29T19:41:06.440Z,8.82
2019-03-29T19:42:07.616Z,8.88
2019-03-29T19:43:06.389Z,8.87
2019-03-29T19:44:06.363Z,8.82
2019-03-29T19:45:06.738Z,8.78
2019-03-29T19:46:07.581Z,8.85
2019-03-29T19:47:13.386Z,8.84
2019-03-29T19:48:07.466Z,8.70
2019-03-29T19:49:06.962Z,8.79
2019-03-29T19:50:06.472Z,8.82
2019-03-29T19:51:06.346Z,8.79
2019-03-29T19:52:07.307Z,8.79
2019-03-29T19:53:06.285Z,8.78
2019-03-29T19:54:08.968Z,8.78
2019-03-29T19:55:06.295Z,8.70
2019-03-29T19:56:06.706Z,8.67
2019-03-29T19:57:06.277Z,8.60
2019-03-29T19:58:13.693Z,8.60
2019-03-29T19:59:06.515Z,8.60
2019-03-29T20:00:06.518Z,8.53
2019-03-29T20:01:06.308Z,8.61
2019-03-29T20:02:06.431Z,8.52
2019-03-29T20:03:08.137Z,8.48
2019-03-29T20:04:09.659Z,8.42
2019-03-29T20:05:07.071Z,8.45
2019-03-29T20:06:07.671Z,8.44
2019-03-29T20:07:06.869Z,8.34
2019-03-29T20:08:06.523Z,8.30
2019-03-29T20:09:08.776Z,8.26
2019-03-29T20:10:06.105Z,8.33
2019-03-29T20:11:06.202Z,8.38
2019-03-29T20:12:06.088Z,8.38
2019-03-29T20:13:06.102Z,8.36
2019-03-29T20:14:07.049Z,8.33
2019-03-29T20:15:06.694Z,8.31
2019-03-29T20:16:06.057Z,8.28
2019-03-29T20:17:08.135Z,8.27
2019-03-29T20:18:06.015Z,8.27
2019-03-29T20:19:05.999Z,8.24
2019-03-29T20:20:08.050Z,8.27
2019-03-29T20:21:06.461Z,8.15
2019-03-29T20:22:08.088Z,8.23
2019-03-29T20:23:05.956Z,8.08
2019-03-29T20:24:05.939Z,8.01
2019-03-29T20:25:05.954Z,8.03
2019-03-29T20:26:11.360Z,7.94
2019-03-29T20:27:06.261Z,7.94
2019-03-29T20:28:06.103Z,7.94
2019-03-29T20:29:05.918Z,7.82
2019-03-29T20:30:05.946Z,7.82
2019-03-29T20:31:05.922Z,7.76
2019-03-29T20:32:05.981Z,7.79
2019-03-29T20:33:05.862Z,7.73
2019-03-29T20:34:07.126Z,7.69
2019-03-29T20:35:05.863Z,7.69
2019-03-29T20:36:05.874Z,7.70
2019-03-29T20:37:08.850Z,7.70
2019-03-29T20:38:05.819Z,7.73
2019-03-29T20:39:05.926Z,7.72
2019-03-29T20:40:05.790Z,7.66
2019-03-29T20:41:05.844Z,7.76
2019-03-29T20:42:05.781Z,7.60
2019-03-29T20:43:05.863Z,7.67
2019-03-29T20:44:05.738Z,7.66
2019-03-29T20:45:08.483Z,7.69
2019-03-29T20:46:09.212Z,7.60
2019-03-29T20:47:13.260Z,7.57
2019-03-29T20:48:08.537Z,7.56
2019-03-29T20:49:05.721Z,7.56
2019-03-29T20:50:05.800Z,7.48
2019-03-29T20:51:05.684Z,7.53
2019-03-29T20:52:05.797Z,7.48
2019-03-29T20:53:05.629Z,7.42
2019-03-29T20:54:06.782Z,7.56
2019-03-29T20:55:05.623Z,7.43
2019-03-29T20:56:06.725Z,7.47
2019-03-29T20:57:05.642Z,7.51
2019-03-29T20:58:05.658Z,7.43
2019-03-29T20:59:05.595Z,7.48
2019-03-29T21:00:05.692Z,7.36
2019-03-29T21:01:05.557Z,7.36
2019-03-29T21:02:16.097Z,7.32
2019-03-29T21:03:05.670Z,7.32
2019-03-29T21:04:06.736Z,7.21
2019-03-29T21:05:05.508Z,7.23
2019-03-29T21:06:05.633Z,7.18
2019-03-29T21:07:05.566Z,7.14
2019-03-29T21:08:08.515Z,7.18
2019-03-29T21:09:06.471Z,7.07
2019-03-29T21:10:05.486Z,7.06
2019-03-29T21:11:05.449Z,7.06
2019-03-29T21:12:07.588Z,7.00
2019-03-29T21:13:07.079Z,7.05
2019-03-29T21:14:07.546Z,7.10
2019-03-29T21:15:05.417Z,7.00
2019-03-29T21:16:05.388Z,6.96
2019-03-29T21:17:05.420Z,6.97
2019-03-29T21:18:05.431Z,6.99
2019-03-29T21:19:05.389Z,6.96
2019-03-29T21:20:07.481Z,6.95
2019-03-29T21:21:05.387Z,6.93
2019-03-29T21:22:05.389Z,6.96
2019-03-29T21:23:06.419Z,6.88
2019-03-29T21:24:05.322Z,6.81
2019-03-29T21:25:05.455Z,6.89
2019-03-29T21:26:05.290Z,6.93
2019-03-29T21:27:05.312Z,6.87
2019-03-29T21:28:05.270Z,6.84
2019-03-29T21:29:05.508Z,6.75
2019-03-29T21:30:05.243Z,6.77
2019-03-29T21:31:12.260Z,6.70
2019-03-29T21:32:05.255Z,6.79
2019-03-29T21:33:05.288Z,6.70
2019-03-29T21:34:05.227Z,6.67
2019-03-29T21:35:05.372Z,6.64
2019-03-29T21:36:05.356Z,6.74
2019-03-29T21:37:08.673Z,6.60
2019-03-29T21:38:05.167Z,6.67
2019-03-29T21:39:05.169Z,6.69
2019-03-29T21:40:05.155Z,6.66
2019-03-29T21:41:16.122Z,6.66
2019-03-29T21:42:24.323Z,6.67
2019-03-29T21:43:06.614Z,6.70
2019-03-29T21:44:13.300Z,6.67
2019-03-29T21:47:21.840Z,6.78
2019-03-29T21:48:28.564Z,6.74
2019-03-29T21:49:21.789Z,6.79
2019-03-29T21:50:20.805Z,6.85
2019-03-29T21:51:20.555Z,6.79
2019-03-29T21:52:21.677Z,6.79
2019-03-29T21:53:21.626Z,6.84
2019-03-29T21:54:20.576Z,6.81
2019-03-29T21:55:21.070Z,6.81
2019-03-29T21:56:20.464Z,6.85
2019-03-29T21:57:28.738Z,6.82
2019-03-29T21:58:22.314Z,6.75
2019-03-29T21:59:20.431Z,6.59
2019-03-29T22:00:35.759Z,6.57
2019-03-29T22:01:20.415Z,6.54
2019-03-29T22:02:21.613Z,6.49
2019-03-29T22:03:20.612Z,6.49
2019-03-29T22:04:22.380Z,6.46
2019-03-29T22:05:20.413Z,6.51
2019-03-29T22:06:20.607Z,6.49
2019-03-29T22:07:20.372Z,6.46
2019-03-29T22:08:21.388Z,6.46
2019-03-29T22:09:36.139Z,6.49
2019-03-29T22:10:35.940Z,6.51
2019-03-29T22:11:20.582Z,6.33
2019-03-29T22:12:45.137Z,6.44
2019-03-29T22:13:20.337Z,6.33
2019-03-29T22:14:20.475Z,6.35
2019-03-29T22:15:20.806Z,6.26
2019-03-29T22:16:21.890Z,6.27
2019-03-29T22:17:20.216Z,6.22
2019-03-29T22:18:20.362Z,6.30
2019-03-29T22:19:21.493Z,6.20
2019-03-29T22:20:21.486Z,6.12
2019-03-29T22:21:27.709Z,6.19
2019-03-29T22:22:20.267Z,6.11
2019-03-29T22:23:49.002Z,6.09
2019-03-29T22:24:21.796Z,6.11
2019-03-29T22:25:20.286Z,6.12
2019-03-29T22:26:20.623Z,6.09
2019-03-29T22:27:20.137Z,6.07
2019-03-29T22:28:24.045Z,6.07
2019-03-29T22:29:21.455Z,6.07
2019-03-29T22:30:20.676Z,6.19
2019-03-29T22:31:20.973Z,6.16
2019-03-29T22:32:20.184Z,6.16
2019-03-29T22:33:20.397Z,6.27
2019-03-29T22:34:23.562Z,6.26
2019-03-29T22:35:22.231Z,6.26
2019-03-29T22:36:20.044Z,6.17
2019-03-29T22:37:20.280Z,6.20
2019-03-29T22:38:20.067Z,6.20
2019-03-29T22:39:20.334Z,6.24
2019-03-29T22:40:21.930Z,6.19
2019-03-29T22:41:20.067Z,6.16
2019-03-29T22:42:21.789Z,6.12
2019-03-29T22:43:20.015Z,6.14
2019-03-29T22:44:19.885Z,6.11
2019-03-29T22:45:19.923Z,6.09
2019-03-29T22:46:19.861Z,5.97
2019-03-29T22:47:19.988Z,5.97
2019-03-29T22:48:19.813Z,5.90
2019-03-29T22:49:19.953Z,6.07
2019-03-29T22:50:19.783Z,5.90
2019-03-29T22:51:19.975Z,5.94
2019-03-29T22:52:19.806Z,5.99
2019-03-29T22:53:19.756Z,5.91
2019-03-29T22:54:19.755Z,5.90
2019-03-29T22:55:19.880Z,5.97
2019-03-29T22:56:19.727Z,5.87
2019-03-29T22:57:19.849Z,5.84
2019-03-29T22:58:19.706Z,5.84
2019-03-29T22:59:19.707Z,5.80
2019-03-29T23:00:19.826Z,5.83
2019-03-29T23:01:19.723Z,5.86
2019-03-29T23:02:19.810Z,5.82
2019-03-29T23:03:19.676Z,5.76
2019-03-29T23:04:19.663Z,5.72
2019-03-29T23:05:19.796Z,5.69
2019-03-29T23:06:19.816Z,5.72
2019-03-29T23:07:19.627Z,5.84
2019-03-29T23:08:19.787Z,5.87
2019-03-29T23:09:19.622Z,5.98
2019-03-29T23:10:19.602Z,6.11
2019-03-29T23:11:19.601Z,6.30
2019-03-29T23:12:19.770Z,6.49
2019-03-29T23:13:19.554Z,6.59
2019-03-29T23:14:19.651Z,6.70
2019-03-29T23:15:19.536Z,6.87
2019-03-29T23:16:19.532Z,6.99
2019-03-29T23:17:19.559Z,7.06
2019-03-29T23:18:19.590Z,7.13
2019-03-29T23:19:19.518Z,7.10
2019-03-29T23:20:19.606Z,7.21
2019-03-29T23:21:19.486Z,7.17
2019-03-29T23:22:19.560Z,7.17
2019-03-29T23:23:19.537Z,7.20
2019-03-29T23:24:19.487Z,7.13
2019-03-29T23:25:19.609Z,7.14
2019-03-29T23:26:19.417Z,7.23
2019-03-29T23:27:19.540Z,7.25
2019-03-29T23:28:19.441Z,7.11
2019-03-29T23:29:20.600Z,7.24
2019-03-29T23:30:19.393Z,7.13
2019-03-29T23:31:19.556Z,6.99
2019-03-29T23:32:19.377Z,7.00
2019-03-29T23:33:19.411Z,6.89
2019-03-29T23:34:19.490Z,6.92
2019-03-29T23:35:19.324Z,6.84
2019-03-29T23:36:19.531Z,6.79
2019-03-29T23:37:19.324Z,6.74
2019-03-29T23:38:19.457Z,6.69
2019-03-29T23:39:19.370Z,6.85
2019-03-29T23:40:19.538Z,6.97
2019-03-29T23:41:19.309Z,6.89
2019-03-29T23:42:20.455Z,6.99
2019-03-29T23:43:19.304Z,7.03
2019-03-29T23:44:19.269Z,6.96
2019-03-29T23:45:19.241Z,7.00
2019-03-29T23:46:20.366Z,6.99
2019-03-29T23:47:19.210Z,7.20
2019-03-29T23:48:19.401Z,7.25
2019-03-29T23:49:21.189Z,7.32
2019-03-29T23:50:19.162Z,7.40
2019-03-29T23:51:19.159Z,7.53
2019-03-29T23:52:19.279Z,7.56
2019-03-29T23:53:19.151Z,7.56
2019-03-29T23:54:19.345Z,7.73
2019-03-29T23:55:19.126Z,7.76
2019-03-29T23:56:19.129Z,7.76
2019-03-29T23:57:19.232Z,7.76
2019-03-29T23:58:19.131Z,7.80
2019-03-29T23:59:19.263Z,7.82
